Time;durP1;ratioP1;P1;durP2;ratioP2;P2;SDS_P1;SDS_P2;PMS_P1;PMS_P2;Temp;Humidity;BMP_temperature;BMP_pressure;BME280_temperature;BME280_humidity;BME280_pressure;Samples;Min_cycle;Max_cycle;Signal;HPM_P1;HPM_P2
2022/11/28 00:01:57;;;;;;;12.27;11.07;;;;;;;3.56;73.86;95483.16;5031785;28;20255;-63
2022/11/28 00:04:23;;;;;;;11.13;10.03;;;;;;;3.68;73.73;95490.16;5028437;28;20189;-64
2022/11/28 00:06:49;;;;;;;9.97;9.07;;;;;;;3.51;73.81;95492.06;5028790;28;20308;-64
2022/11/28 00:09:19;;;;;;;10.53;9.20;;;;;;;3.41;74.07;95490.97;5028359;28;20189;-64
2022/11/28 00:11:46;;;;;;;9.10;7.90;;;;;;;3.40;74.72;95491.91;5030338;28;20284;-64
2022/11/28 00:14:12;;;;;;;9.00;8.03;;;;;;;3.47;74.49;95487.16;5027257;28;20193;-64
2022/11/28 00:16:38;;;;;;;8.87;7.97;;;;;;;3.54;74.32;95481.47;5030866;28;20324;-64
2022/11/28 00:19:05;;;;;;;7.97;7.17;;;;;;;3.50;74.58;95482.63;5031478;28;20280;-64
2022/11/28 00:21:30;;;;;;;7.20;6.60;;;;;;;3.68;74.49;95484.97;5031724;28;20197;-64
2022/11/28 00:23:57;;;;;;;8.83;7.57;;;;;;;3.60;74.49;95485.44;5023423;28;20206;-64
2022/11/28 00:26:29;;;;;;;9.07;7.90;;;;;;;3.56;74.69;95478.78;5026751;28;20244;-64
2022/11/28 00:28:56;;;;;;;8.70;7.87;;;;;;;3.61;74.24;95481.06;5027696;28;20194;-64
2022/11/28 00:31:28;;;;;;;8.33;7.53;;;;;;;3.78;73.04;95480.84;5031129;28;20246;-64
2022/11/28 00:33:53;;;;;;;7.97;7.20;;;;;;;3.58;74.12;95486.47;5043367;28;20188;-64
2022/11/28 00:36:20;;;;;;;8.30;7.50;;;;;;;3.56;74.00;95485.75;5024100;28;20242;-64
2022/11/28 00:38:46;;;;;;;8.20;7.40;;;;;;;3.62;74.30;95477.56;5029378;28;20209;-64
2022/11/28 00:41:18;;;;;;;7.87;7.00;;;;;;;3.52;73.74;95475.53;5027115;28;20557;-66
2022/11/28 00:43:45;;;;;;;8.30;7.50;;;;;;;3.49;74.32;95488.72;5024718;28;20197;-63
2022/11/28 00:46:12;;;;;;;8.10;7.40;;;;;;;3.57;73.78;95484.81;5029002;28;20209;-64
2022/11/28 00:48:38;;;;;;;7.80;7.07;;;;;;;3.57;73.67;95485.66;5045794;28;20186;-64
2022/11/28 00:51:05;;;;;;;8.20;7.40;;;;;;;3.42;74.38;95476.22;5029172;28;20197;-63
2022/11/28 00:53:30;;;;;;;8.43;7.63;;;;;;;3.52;74.48;95483.31;5023913;28;20240;-64
2022/11/28 00:55:56;;;;;;;8.60;7.67;;;;;;;3.61;73.72;95483.66;5027937;28;20218;-63
2022/11/28 00:58:21;;;;;;;8.00;7.20;;;;;;;3.23;74.22;95473.94;5028943;28;20273;-64
2022/11/28 01:00:46;;;;;;;8.33;7.53;;;;;;;3.35;74.25;95480.16;5023744;28;20212;-63
2022/11/28 01:03:12;;;;;;;9.10;7.53;;;;;;;3.27;74.47;95470.22;5026106;28;20185;-63
2022/11/28 01:05:42;;;;;;;8.37;7.57;;;;;;;3.23;74.93;95477.34;5032669;28;20193;-63
2022/11/28 01:08:08;;;;;;;8.20;7.40;;;;;;;3.25;74.91;95478.09;5028560;28;20193;-63
2022/11/28 01:10:38;;;;;;;8.13;7.33;;;;;;;3.09;75.40;95480.81;5029502;28;20185;-67
2022/11/28 01:13:04;;;;;;;7.97;7.17;;;;;;;3.17;75.80;95484.72;5028069;28;20366;-68
2022/11/28 01:15:29;;;;;;;8.73;7.93;;;;;;;3.31;75.15;95476.88;5031927;28;20273;-68
2022/11/28 01:17:55;;;;;;;8.17;7.40;;;;;;;3.09;74.77;95475.63;5030664;28;20186;-68
2022/11/28 01:20:20;;;;;;;7.90;7.17;;;;;;;3.15;74.32;95463.19;5029725;28;20190;-68
2022/11/28 01:22:45;;;;;;;7.93;7.07;;;;;;;3.16;74.80;95460.50;5028389;28;20246;-68
2022/11/28 01:25:11;;;;;;;8.10;7.40;;;;;;;3.13;74.99;95472.84;5044546;28;20190;-68
2022/11/28 01:27:36;;;;;;;7.63;6.83;;;;;;;3.13;74.89;95465.03;5030795;28;20205;-68
2022/11/28 01:30:02;;;;;;;6.87;6.17;;;;;;;3.13;74.44;95460.69;5027963;28;20190;-68
2022/11/28 01:32:28;;;;;;;7.00;6.20;;;;;;;3.09;74.73;95467.84;5026205;28;20252;-68
2022/11/28 01:34:53;;;;;;;6.90;6.07;;;;;;;3.01;75.45;95458.84;5026127;28;20190;-69
2022/11/28 01:37:19;;;;;;;6.43;5.83;;;;;;;3.10;74.95;95460.88;5012872;28;20241;-69
2022/11/28 01:39:44;;;;;;;6.30;5.70;;;;;;;3.07;75.11;95455.88;4995453;28;20191;-69
2022/11/28 01:42:18;;;;;;;6.47;5.87;;;;;;;3.04;74.88;95454.28;5005163;28;20293;-68
2022/11/28 01:44:47;;;;;;;6.37;5.77;;;;;;;3.14;74.84;95453.72;5001873;28;20214;-68
2022/11/28 01:47:19;;;;;;;6.53;5.93;;;;;;;3.05;75.23;95450.78;4995515;28;20211;-68
2022/11/28 01:49:46;;;;;;;6.30;5.70;;;;;;;3.12;74.92;95458.19;5005808;28;20218;-68
2022/11/28 01:52:15;;;;;;;6.70;6.00;;;;;;;2.97;74.85;95450.41;4998741;28;20194;-68
2022/11/28 01:54:45;;;;;;;6.13;5.53;;;;;;;2.98;75.36;95449.47;4999538;28;20195;-68
2022/11/28 01:57:18;;;;;;;5.90;5.40;;;;;;;3.01;75.48;95457.09;5004986;28;20285;-69
2022/11/28 01:59:50;;;;;;;7.07;6.37;;;;;;;2.96;75.58;95451.34;5003354;28;20199;-68
2022/11/28 02:02:50;;;;;;;6.00;5.50;;;;;;;2.95;75.41;95454.88;5004393;28;20186;-68
2022/11/28 02:05:18;;;;;;;6.13;5.53;;;;;;;2.97;75.66;95447.81;4931595;29;20204;-68
2022/11/28 02:07:44;;;;;;;6.43;5.83;;;;;;;2.97;75.52;95453.03;4932264;29;20316;-68
2022/11/28 02:10:15;;;;;;;6.07;5.47;;;;;;;2.93;75.28;95442.91;4931654;29;20211;-69
2022/11/28 02:13:04;;;;;;;6.47;5.87;;;;;;;2.77;76.06;95450.81;4930953;29;20292;-68
2022/11/28 02:16:09;;;;;;;6.57;5.87;;;;;;;2.83;76.73;95446.09;4929973;29;20208;-68
2022/11/28 02:18:40;;;;;;;6.40;5.80;;;;;;;2.99;75.52;95435.56;4943542;29;20213;-69
2022/11/28 02:21:39;;;;;;;6.40;5.80;;;;;;;3.02;75.04;95437.97;4932235;29;20201;-69
2022/11/28 02:24:13;;;;;;;6.07;5.57;;;;;;;2.99;75.65;95437.31;4929796;29;20216;-69
2022/11/28 02:26:54;;;;;;;6.33;5.70;;;;;;;2.95;75.85;95436.69;4927868;29;20238;-68
2022/11/28 02:29:37;;;;;;;6.17;5.20;;;;;;;2.93;75.04;95448.94;4928284;29;20204;-68
2022/11/28 02:32:42;;;;;;;6.20;5.60;;;;;;;2.97;75.61;95436.59;4944996;29;20201;-68
2022/11/28 02:35:25;;;;;;;6.37;5.77;;;;;;;3.05;75.36;95431.75;4929601;29;20255;-69
2022/11/28 02:38:19;;;;;;;6.20;5.60;;;;;;;2.93;75.48;95432.53;4944984;29;20229;-68
2022/11/28 02:41:05;;;;;;;5.83;5.33;;;;;;;2.83;76.24;95432.25;4899932;28;20717;-68
2022/11/28 02:43:37;;;;;;;5.57;5.07;;;;;;;2.87;76.00;95438.94;4949856;28;20197;-68
2022/11/28 02:46:50;;;;;;;5.13;4.63;;;;;;;2.94;75.88;95437.63;4952407;28;20193;-68
2022/11/28 02:49:29;;;;;;;5.03;4.53;;;;;;;2.84;76.21;95433.94;4908137;29;20500;-68
2022/11/28 02:52:16;;;;;;;5.27;4.77;;;;;;;2.77;76.32;95428.25;4887684;29;20203;-68
2022/11/28 02:54:43;;;;;;;4.70;4.30;;;;;;;2.82;75.93;95439.19;4903608;29;20234;-68
2022/11/28 02:57:09;;;;;;;5.23;4.73;;;;;;;2.89;75.82;95426.69;4891671;29;20257;-67
2022/11/28 02:59:37;;;;;;;6.07;5.03;;;;;;;2.81;76.32;95441.91;4907006;29;20229;-68
2022/11/28 03:02:12;;;;;;;4.63;4.23;;;;;;;2.77;76.12;95430.84;4905611;29;20203;-69
2022/11/28 03:05:00;;;;;;;5.00;4.37;;;;;;;2.77;76.28;95443.84;4898348;29;20273;-67
2022/11/28 03:07:36;;;;;;;5.20;4.80;;;;;;;2.84;76.36;95439.13;4909541;29;20203;-68
2022/11/28 03:10:10;;;;;;;4.70;4.30;;;;;;;2.93;76.13;95443.72;4912413;29;20202;-67
2022/11/28 03:12:54;;;;;;;4.67;4.27;;;;;;;2.82;76.15;95446.16;4911062;29;20447;-67
2022/11/28 03:15:27;;;;;;;4.97;4.57;;;;;;;2.80;76.60;95442.81;4910958;29;20206;-69
2022/11/28 03:18:19;;;;;;;4.30;3.90;;;;;;;2.95;76.13;95449.69;4914762;29;20249;-68
2022/11/28 03:20:53;;;;;;;3.87;3.57;;;;;;;3.09;75.19;95441.84;4946983;29;20192;-68
2022/11/28 03:23:26;;;;;;;4.60;4.20;;;;;;;3.11;75.12;95443.53;4965726;28;20263;-68
2022/11/28 03:26:01;;;;;;;4.13;3.67;;;;;;;3.12;74.71;95440.81;5018740;28;20194;-68
2022/11/28 03:28:59;;;;;;;3.90;3.60;;;;;;;3.08;75.15;95441.97;5005506;28;20223;-68
2022/11/28 03:31:37;;;;;;;4.23;3.83;;;;;;;3.08;75.13;95442.78;4998954;28;20184;-68
2022/11/28 03:34:07;;;;;;;3.80;3.50;;;;;;;3.06;75.15;95443.81;5006687;28;20190;-68
2022/11/28 03:36:48;;;;;;;3.83;3.53;;;;;;;3.09;75.16;95449.66;5000034;28;20230;-68
2022/11/28 03:39:19;;;;;;;3.90;3.60;;;;;;;2.99;75.13;95443.34;5008930;28;20182;-68
2022/11/28 03:41:54;;;;;;;3.47;3.17;;;;;;;3.15;74.97;95451.03;5001449;28;20355;-68
2022/11/28 03:44:29;;;;;;;3.40;3.10;;;;;;;3.00;75.45;95446.81;5004603;28;20229;-68
2022/11/28 03:46:57;;;;;;;3.63;3.33;;;;;;;2.92;75.20;95452.47;5005456;28;20197;-68
2022/11/28 03:49:30;;;;;;;3.27;2.97;;;;;;;2.93;75.67;95443.72;5002219;28;20199;-68
2022/11/28 03:52:05;;;;;;;3.83;3.53;;;;;;;2.95;75.82;95436.69;5000616;28;20202;-68
2022/11/28 03:55:06;;;;;;;3.03;2.83;;;;;;;3.05;75.77;95443.00;5005429;28;20233;-68
2022/11/28 03:57:36;;;;;;;3.33;2.70;;;;;;;3.13;75.21;95437.31;4966248;28;20208;-68
2022/11/28 04:00:06;;;;;;;3.03;2.83;;;;;;;3.12;75.52;95442.59;4965005;28;20227;-68
2022/11/28 04:02:38;;;;;;;3.10;2.80;;;;;;;2.93;75.61;95443.72;4949364;28;20196;-68
2022/11/28 04:05:19;;;;;;;2.97;2.77;;;;;;;3.01;75.58;95438.91;4962336;28;20291;-68
2022/11/28 04:07:57;;;;;;;3.03;2.80;;;;;;;2.88;75.94;95441.41;4964460;28;20548;-68
2022/11/28 04:10:35;;;;;;;3.10;2.80;;;;;;;2.86;76.34;95434.66;4967838;28;20195;-68
2022/11/28 04:13:35;;;;;;;2.70;2.50;;;;;;;2.87;76.08;95434.56;4953037;28;20286;-69
2022/11/28 04:16:03;;;;;;;2.73;2.53;;;;;;;2.95;76.35;95425.47;4952238;28;20193;-68
2022/11/28 04:18:34;;;;;;;2.80;2.60;;;;;;;2.99;76.06;95430.34;4982116;28;20231;-68
2022/11/28 04:21:07;;;;;;;2.70;2.50;;;;;;;2.97;76.27;95434.84;4952255;28;20196;-68
2022/11/28 04:23:35;;;;;;;2.70;2.50;;;;;;;2.83;75.99;95432.25;4964658;28;20204;-69
2022/11/28 04:26:06;;;;;;;2.40;2.20;;;;;;;2.88;76.63;95441.41;4952008;28;20242;-69
2022/11/28 04:28:35;;;;;;;3.77;2.67;;;;;;;2.94;76.48;95437.63;4979976;28;20203;-69
2022/11/28 04:31:05;;;;;;;2.80;2.33;;;;;;;2.96;76.22;95437.50;4974522;28;20199;-69
2022/11/28 04:33:36;;;;;;;2.80;2.37;;;;;;;2.89;76.66;95447.47;5003575;28;20187;-69
2022/11/28 04:36:04;;;;;;;2.47;2.27;;;;;;;3.05;76.26;95440.38;5001709;28;20219;-69
2022/11/28 04:38:32;;;;;;;2.20;2.10;;;;;;;3.13;75.70;95445.09;5003583;28;20235;-68
2022/11/28 04:41:11;;;;;;;2.40;2.20;;;;;;;3.09;75.18;95441.03;5000805;28;20221;-68
2022/11/28 04:43:52;;;;;;;2.33;2.13;;;;;;;3.03;75.77;95442.25;5000244;28;20338;-66
2022/11/28 04:46:25;;;;;;;2.20;2.00;;;;;;;3.02;75.91;95445.78;5011350;28;20207;-67
2022/11/28 04:48:51;;;;;;;2.40;2.20;;;;;;;3.10;75.91;95445.28;5002848;28;20205;-68
2022/11/28 04:51:58;;;;;;;2.50;2.30;;;;;;;2.94;76.11;95452.34;5001609;28;20195;-69
2022/11/28 04:54:31;;;;;;;2.50;2.30;;;;;;;2.97;76.08;95455.63;5006603;28;20205;-68
2022/11/28 04:57:03;;;;;;;2.37;2.17;;;;;;;3.00;76.69;95455.44;5017133;28;20298;-68
2022/11/28 04:59:30;;;;;;;2.50;2.30;;;;;;;3.00;76.02;95457.19;5003663;28;20442;-68
2022/11/28 05:02:00;;;;;;;2.77;2.57;;;;;;;2.99;76.04;95458.09;5002921;28;20204;-68
2022/11/28 05:04:25;;;;;;;2.50;2.30;;;;;;;3.02;75.99;95463.09;4995646;28;20234;-68
2022/11/28 05:07:01;;;;;;;3.40;2.27;;;;;;;2.89;76.17;95465.66;4997898;28;20206;-68
2022/11/28 05:09:26;;;;;;;2.60;2.40;;;;;;;3.08;75.49;95460.97;5001821;28;20281;-68
2022/11/28 05:11:52;;;;;;;2.90;2.70;;;;;;;3.16;75.07;95454.47;5001727;28;20285;-68
2022/11/28 05:14:17;;;;;;;2.70;2.50;;;;;;;2.96;75.60;95453.94;5002486;28;20199;-68
2022/11/28 05:16:43;;;;;;;2.53;2.37;;;;;;;3.03;76.40;95460.44;4996326;28;20227;-68
2022/11/28 05:19:08;;;;;;;2.67;2.47;;;;;;;3.04;76.10;95456.06;5003102;28;20203;-67
2022/11/28 05:21:34;;;;;;;2.60;2.40;;;;;;;3.05;75.46;95449.94;5004883;28;20203;-68
2022/11/28 05:23:59;;;;;;;3.57;3.27;;;;;;;3.03;75.69;95450.03;5001765;28;20209;-69
2022/11/28 05:26:25;;;;;;;2.50;2.30;;;;;;;2.92;75.57;95446.44;5013995;28;20334;-67
2022/11/28 05:28:51;;;;;;;2.80;2.60;;;;;;;2.99;76.28;95439.91;5000035;28;20202;-67
2022/11/28 05:31:19;;;;;;;2.67;2.47;;;;;;;3.14;76.01;95445.94;4999228;28;20284;-67
2022/11/28 05:33:44;;;;;;;3.23;2.97;;;;;;;3.17;75.25;95440.53;5004712;28;20183;-68
2022/11/28 05:36:12;;;;;;;2.83;2.63;;;;;;;3.11;74.79;95451.31;4997848;28;20195;-69
2022/11/28 05:38:37;;;;;;;3.40;3.10;;;;;;;3.12;75.11;95445.19;5040484;28;20252;-69
2022/11/28 05:41:03;;;;;;;3.30;3.00;;;;;;;2.93;75.51;95448.94;5042448;28;20275;-69
2022/11/28 05:43:29;;;;;;;3.27;3.00;;;;;;;3.07;75.59;95448.94;5027188;28;20300;-69
2022/11/28 05:45:55;;;;;;;2.83;2.63;;;;;;;3.02;75.47;95440.59;5028614;28;20218;-69
2022/11/28 05:48:22;;;;;;;4.47;3.20;;;;;;;3.14;75.09;95441.56;5027829;28;20201;-69
2022/11/28 05:50:49;;;;;;;3.37;3.07;;;;;;;3.07;75.62;95446.34;5027345;28;20193;-68
2022/11/28 05:53:16;;;;;;;3.13;2.83;;;;;;;2.97;75.44;95442.63;5027574;28;20251;-67
2022/11/28 05:55:47;;;;;;;3.13;2.90;;;;;;;2.96;75.29;95442.72;5021967;28;20281;-67
2022/11/28 05:58:13;;;;;;;3.90;3.60;;;;;;;2.99;75.69;95445.94;5024099;28;20370;-67
2022/11/28 06:00:38;;;;;;;3.30;3.00;;;;;;;3.12;75.37;95446.03;5040936;28;20193;-68
2022/11/28 06:03:04;;;;;;;3.70;3.40;;;;;;;3.17;74.77;95445.75;5024671;28;20186;-68
2022/11/28 06:05:30;;;;;;;3.60;3.13;;;;;;;3.18;74.92;95434.41;5029655;28;20190;-68
2022/11/28 06:07:56;;;;;;;3.70;3.40;;;;;;;3.22;74.89;95443.69;5024995;28;20225;-68
2022/11/28 06:10:21;;;;;;;3.70;3.40;;;;;;;3.16;74.87;95436.28;5037451;28;20213;-67
2022/11/28 06:12:48;;;;;;;4.27;3.43;;;;;;;3.21;74.83;95440.25;5043178;28;20192;-67
2022/11/28 06:15:13;;;;;;;4.13;3.73;;;;;;;3.36;74.29;95435.84;5028781;28;20186;-68
2022/11/28 06:17:39;;;;;;;4.60;4.20;;;;;;;3.28;74.51;95438.09;5021472;28;20213;-68
2022/11/28 06:20:06;;;;;;;3.97;3.60;;;;;;;3.30;74.28;95436.25;5039150;28;20191;-68
2022/11/28 06:22:32;;;;;;;3.90;3.60;;;;;;;3.27;74.74;95439.03;5024467;28;20205;-69
2022/11/28 06:24:57;;;;;;;4.30;3.90;;;;;;;3.25;74.69;95433.09;5024862;28;20202;-66
2022/11/28 06:27:23;;;;;;;6.90;4.47;;;;;;;3.30;74.54;95441.44;5041612;28;20193;-66
2022/11/28 06:29:48;;;;;;;4.53;4.03;;;;;;;3.11;75.06;95446.13;5028045;28;20209;-66
2022/11/28 06:32:13;;;;;;;4.70;4.30;;;;;;;3.20;74.84;95440.34;5037084;28;20217;-71
2022/11/28 06:34:39;;;;;;;6.13;5.20;;;;;;;3.34;75.21;95432.50;5027087;28;20251;-70
2022/11/28 06:37:04;;;;;;;6.10;5.50;;;;;;;3.51;74.04;95439.25;5028614;28;20264;-71
2022/11/28 06:39:30;;;;;;;5.93;5.33;;;;;;;3.50;74.03;95430.63;5039582;28;20190;-72
2022/11/28 06:41:56;;;;;;;6.00;5.50;;;;;;;3.52;73.59;95422.69;5030457;28;20194;-72
2022/11/28 06:44:21;;;;;;;5.57;5.07;;;;;;;3.62;73.18;95425.53;5044978;28;20189;-71
2022/11/28 06:46:47;;;;;;;5.50;5.00;;;;;;;3.57;72.93;95427.59;5029561;28;20186;-71
2022/11/28 06:49:13;;;;;;;5.93;5.33;;;;;;;3.56;73.54;95425.94;5026121;28;20211;-72
2022/11/28 06:51:40;;;;;;;5.93;5.33;;;;;;;3.59;73.61;95423.16;5043035;28;20194;-70
2022/11/28 06:54:06;;;;;;;5.67;5.10;;;;;;;3.65;72.86;95422.75;5027288;28;20193;-71
2022/11/28 06:56:31;;;;;;;5.73;5.23;;;;;;;3.58;72.73;95419.69;5029817;28;20196;-70
2022/11/28 06:58:58;;;;;;;6.27;5.63;;;;;;;3.56;73.24;95420.75;5025940;28;20185;-69
2022/11/28 07:01:25;;;;;;;5.67;5.17;;;;;;;3.43;73.25;95416.34;5032461;28;20249;-69
2022/11/28 07:03:53;;;;;;;5.43;4.83;;;;;;;3.49;73.08;95428.94;5027827;28;20208;-69
2022/11/28 07:06:20;;;;;;;5.53;5.03;;;;;;;3.50;72.61;95430.63;5022853;28;20189;-72
2022/11/28 07:08:46;;;;;;;5.57;5.07;;;;;;;3.64;72.47;95426.28;5022375;28;20206;-72
2022/11/28 07:11:14;;;;;;;6.00;5.40;;;;;;;3.60;71.71;95423.03;5027036;28;20232;-73
2022/11/28 07:13:41;;;;;;;7.10;5.50;;;;;;;3.59;72.37;95425.75;5028499;28;20273;-72
2022/11/28 07:16:10;;;;;;;6.47;5.77;;;;;;;3.59;73.39;95430.94;5025776;28;20292;-71
2022/11/28 07:18:36;;;;;;;6.87;6.27;;;;;;;3.65;72.92;95427.94;5024750;28;20206;-68
2022/11/28 07:21:02;;;;;;;9.10;6.80;;;;;;;3.65;73.13;95428.78;5031626;28;20189;-71
2022/11/28 07:23:27;;;;;;;7.03;6.33;;;;;;;3.79;73.07;95429.63;5023507;28;20221;-70
2022/11/28 07:26:01;;;;;;;7.70;6.67;;;;;;;3.81;73.05;95427.78;5030587;28;20181;-72
2022/11/28 07:28:28;;;;;;;7.50;5.90;;;;;;;3.88;72.28;95424.69;5031110;28;20217;-71
2022/11/28 07:31:06;;;;;;;6.03;5.47;;;;;;;3.79;71.48;95424.44;5032080;28;20269;-71
2022/11/28 07:33:33;;;;;;;5.53;5.03;;;;;;;3.74;71.51;95425.59;5025431;28;20190;-73
2022/11/28 07:36:01;;;;;;;6.90;6.20;;;;;;;3.74;71.19;95427.34;5039478;28;20240;-69
2022/11/28 07:38:26;;;;;;;6.60;6.00;;;;;;;3.80;70.97;95429.56;5001841;28;20235;-67
2022/11/28 07:40:52;;;;;;;6.07;5.47;;;;;;;3.95;71.15;95422.50;5000370;28;20191;-68
2022/11/28 07:43:17;;;;;;;7.07;5.37;;;;;;;4.04;71.29;95426.28;5006799;28;20213;-69
2022/11/28 07:45:43;;;;;;;6.20;5.60;;;;;;;4.04;70.95;95426.28;5002902;28;20678;-69
2022/11/28 07:48:09;;;;;;;8.20;6.40;;;;;;;4.08;70.83;95418.13;5004856;28;20190;-70
2022/11/28 07:50:37;;;;;;;5.73;5.17;;;;;;;4.13;70.82;95418.66;5001888;28;20324;-67
2022/11/28 07:53:02;;;;;;;7.97;5.63;;;;;;;4.17;70.67;95417.53;5002376;28;20184;-69
2022/11/28 07:55:28;;;;;;;6.20;5.47;;;;;;;4.26;70.66;95421.28;5008004;28;20245;-69
2022/11/28 07:57:53;;;;;;;6.77;5.63;;;;;;;4.33;70.84;95422.56;5000053;28;20217;-68
2022/11/28 08:00:20;;;;;;;5.90;5.30;;;;;;;4.52;70.29;95414.31;5005282;28;20198;-66
2022/11/28 08:02:45;;;;;;;6.67;5.57;;;;;;;4.47;70.16;95426.00;5003754;28;20210;-64
2022/11/28 08:05:11;;;;;;;5.47;4.97;;;;;;;4.43;71.40;95415.75;5009342;28;20195;-67
2022/11/28 08:07:38;;;;;;;5.77;4.93;;;;;;;4.57;71.14;95419.19;5000270;28;20321;-72
2022/11/28 08:10:05;;;;;;;5.27;4.77;;;;;;;4.67;70.25;95425.44;5001879;28;20276;-67
2022/11/28 08:12:30;;;;;;;5.97;4.93;;;;;;;4.52;70.68;95421.31;5004298;28;20198;-72
2022/11/28 08:14:56;;;;;;;5.37;4.87;;;;;;;4.75;70.54;95422.31;5001019;28;20183;-71
2022/11/28 08:17:21;;;;;;;5.33;4.83;;;;;;;4.83;69.96;95418.22;5001078;28;20241;-71
2022/11/28 08:19:46;;;;;;;5.13;4.63;;;;;;;4.90;69.09;95412.59;5003698;28;20211;-68
2022/11/28 08:22:12;;;;;;;5.13;4.63;;;;;;;4.92;69.81;95410.69;5004805;28;20290;-70
2022/11/28 08:24:37;;;;;;;6.00;5.40;;;;;;;5.05;70.08;95414.09;5001053;28;20262;-71
2022/11/28 08:27:03;;;;;;;6.33;5.13;;;;;;;5.18;69.51;95414.06;4996212;28;20199;-70
2022/11/28 08:29:28;;;;;;;5.37;4.87;;;;;;;5.15;69.58;95411.69;5002270;28;20203;-69
2022/11/28 08:31:54;;;;;;;4.63;4.23;;;;;;;5.23;69.00;95422.41;5011195;28;20289;-69
2022/11/28 08:34:19;;;;;;;6.00;5.10;;;;;;;5.11;68.49;95413.69;5001872;28;20207;-70
2022/11/28 08:36:46;;;;;;;7.03;5.33;;;;;;;5.13;69.29;95409.19;4995447;28;20238;-70
2022/11/28 08:39:11;;;;;;;5.43;4.87;;;;;;;5.07;68.71;95409.63;5003386;28;20206;-70
2022/11/28 08:41:37;;;;;;;4.80;4.37;;;;;;;5.02;68.45;95401.28;5005520;28;20202;-68
2022/11/28 08:44:02;;;;;;;5.13;4.67;;;;;;;5.08;68.74;95411.31;4996999;28;20226;-69
2022/11/28 08:46:28;;;;;;;5.17;4.77;;;;;;;5.20;68.48;95402.59;5004388;28;20202;-71
2022/11/28 08:48:53;;;;;;;4.80;4.27;;;;;;;5.27;68.35;95406.44;5004350;28;20202;-74
2022/11/28 08:51:22;;;;;;;4.77;4.37;;;;;;;5.21;68.54;95404.28;5007057;28;20199;-67
2022/11/28 08:53:49;;;;;;;4.67;4.27;;;;;;;5.13;68.31;95396.16;5013561;28;20192;-69
2022/11/28 08:56:14;;;;;;;4.80;4.40;;;;;;;5.12;68.29;95399.72;5003295;28;20202;-69
2022/11/28 08:58:40;;;;;;;8.90;8.00;;;;;;;5.24;69.31;95392.81;4994594;28;20204;-72
2022/11/28 09:01:18;;;;;;;9.50;8.50;;;;;;;5.49;68.79;95395.28;4995786;28;20214;-70
2022/11/28 09:03:43;;;;;;;10.73;9.33;;;;;;;5.16;70.66;95389.88;4993263;28;20195;-71
2022/11/28 09:06:09;;;;;;;8.60;7.67;;;;;;;5.20;70.12;95392.16;4998656;28;20334;-70
2022/11/28 09:08:34;;;;;;;7.90;6.93;;;;;;;5.37;69.86;95377.91;5005539;28;20222;-67
2022/11/28 09:11:00;;;;;;;3.67;3.37;;;;;;;5.33;68.94;95376.47;4999820;28;20257;-66
2022/11/28 09:13:25;;;;;;;4.60;4.20;;;;;;;5.39;67.68;95365.59;5000077;28;20198;-67
2022/11/28 09:15:51;;;;;;;4.30;3.90;;;;;;;5.50;68.38;95367.41;5000409;28;20213;-66
2022/11/28 09:18:17;;;;;;;4.30;3.90;;;;;;;5.67;67.71;95355.78;5001344;28;20223;-68
2022/11/28 09:20:42;;;;;;;5.00;3.80;;;;;;;5.80;66.19;95364.34;5004366;28;20273;-67
2022/11/28 09:23:09;;;;;;;4.03;3.63;;;;;;;5.46;67.16;95356.38;5005935;28;20194;-67
2022/11/28 09:25:36;;;;;;;3.57;3.27;;;;;;;5.37;67.37;95356.22;5000374;28;20193;-70
2022/11/28 09:28:02;;;;;;;3.33;2.93;;;;;;;5.45;67.75;95359.97;4996740;28;20191;-69
2022/11/28 09:30:27;;;;;;;2.93;2.67;;;;;;;5.38;68.38;95347.47;4986824;28;20206;-69
2022/11/28 09:32:53;;;;;;;3.50;3.20;;;;;;;5.60;67.36;95344.13;4999277;28;20195;-68
2022/11/28 09:35:18;;;;;;;3.97;2.83;;;;;;;5.98;66.05;95346.50;5011861;28;20202;-70
2022/11/28 09:37:44;;;;;;;3.70;3.33;;;;;;;6.13;65.55;95340.13;5007471;28;20238;-74
2022/11/28 09:40:43;;;;;;;3.30;2.80;;;;;;;6.47;63.76;95334.94;5004243;28;20345;-73
2022/11/28 09:43:15;;;;;;;3.30;3.00;;;;;;;6.52;64.82;95335.41;4943115;28;20209;-70
2022/11/28 09:45:43;;;;;;;2.97;2.63;;;;;;;6.98;63.03;95323.13;4928481;29;20209;-70
2022/11/28 09:48:21;;;;;;;2.83;2.63;;;;;;;7.32;61.57;95313.34;4947950;28;20204;-70
2022/11/28 09:50:54;;;;;;;4.07;2.73;;;;;;;7.36;61.34;95308.72;4943404;28;20196;-67
2022/11/28 09:53:29;;;;;;;2.63;2.43;;;;;;;6.95;63.06;95299.81;4932082;29;20660;-73
2022/11/28 09:56:03;;;;;;;2.73;2.50;;;;;;;6.94;61.82;95298.97;4944597;28;20243;-70
2022/11/28 09:58:47;;;;;;;2.43;2.23;;;;;;;6.71;62.11;95302.59;4926622;28;20228;-68
2022/11/28 10:01:19;;;;;;;2.57;2.37;;;;;;;7.09;61.30;95301.34;4929823;29;20261;-69
2022/11/28 10:04:36;;;;;;;2.67;2.30;;;;;;;7.16;60.14;95298.06;4932174;28;20996;-70
2022/11/28 10:07:07;;;;;;;2.30;2.17;;;;;;;7.35;60.72;95299.19;4871172;29;20288;-70
2022/11/28 10:09:41;;;;;;;2.40;2.20;;;;;;;7.19;58.77;95307.47;4875071;29;20238;-67
2022/11/28 10:12:25;;;;;;;1.90;1.80;;;;;;;6.99;58.66;95298.63;4871571;29;20330;-68
2022/11/28 10:15:15;;;;;;;2.13;1.80;;;;;;;6.81;59.54;95298.28;4871125;29;20227;-69
2022/11/28 10:17:59;;;;;;;2.27;1.70;;;;;;;6.46;61.04;95298.47;4860861;29;20239;-68
2022/11/28 10:20:29;;;;;;;2.30;2.10;;;;;;;6.52;59.88;95306.66;4911323;29;20217;-68
2022/11/28 10:22:59;;;;;;;2.60;1.90;;;;;;;6.50;60.27;95305.13;4925315;29;20218;-68
2022/11/28 10:26:02;;;;;;;1.90;1.80;;;;;;;6.35;59.93;95304.53;4927356;29;20239;-64
2022/11/28 10:28:33;;;;;;;4.73;2.33;;;;;;;6.39;60.50;95291.13;4911532;29;20209;-65
2022/11/28 10:31:18;;;;;;;2.60;2.37;;;;;;;6.37;60.00;95289.56;4917189;29;20205;-65
2022/11/28 10:33:54;;;;;;;2.77;2.33;;;;;;;6.80;61.11;95271.34;4912481;29;20263;-70
2022/11/28 10:37:04;;;;;;;2.13;1.93;;;;;;;7.54;58.23;95269.75;4913114;29;20209;-71
2022/11/28 10:39:29;;;;;;;2.20;2.00;;;;;;;7.74;56.58;95269.75;4931673;28;20214;-71
2022/11/28 10:42:10;;;;;;;3.00;2.70;;;;;;;7.78;56.65;95264.25;4939559;28;20225;-70
2022/11/28 10:44:48;;;;;;;4.47;3.93;;;;;;;7.60;57.69;95266.63;4928071;29;20202;-68
2022/11/28 10:47:25;;;;;;;3.23;2.87;;;;;;;7.40;57.80;95263.03;4932042;28;20204;-68
2022/11/28 10:50:06;;;;;;;4.27;3.03;;;;;;;7.18;58.72;95264.78;4942740;28;20233;-68
2022/11/28 10:52:43;;;;;;;3.60;3.27;;;;;;;6.97;60.27;95261.31;4946757;28;20235;-68
2022/11/28 10:55:19;;;;;;;4.80;2.97;;;;;;;6.84;58.51;95261.44;4931641;29;20268;-71
2022/11/28 10:57:53;;;;;;;3.77;3.47;;;;;;;6.72;59.57;95262.44;4927783;28;20216;-71
2022/11/28 11:00:19;;;;;;;3.37;3.00;;;;;;;6.57;59.75;95260.09;4935847;28;20213;-71
2022/11/28 11:02:55;;;;;;;3.90;3.07;;;;;;;6.56;60.08;95258.44;4928601;28;20209;-71
2022/11/28 11:05:32;;;;;;;4.03;3.10;;;;;;;6.81;59.48;95251.25;4942321;28;20779;-70
2022/11/28 11:08:00;;;;;;;3.30;3.00;;;;;;;6.81;58.95;95257.31;4946930;28;20208;-71
2022/11/28 11:10:32;;;;;;;2.87;2.67;;;;;;;6.97;58.91;95256.91;4932921;29;20262;-71
2022/11/28 11:12:58;;;;;;;3.10;2.80;;;;;;;7.21;58.06;95253.25;4947345;28;20199;-70
2022/11/28 11:15:28;;;;;;;3.30;3.00;;;;;;;7.40;56.36;95248.16;5013394;28;20257;-70
2022/11/28 11:17:55;;;;;;;3.53;3.23;;;;;;;7.34;57.29;95247.84;4998595;28;20223;-70
2022/11/28 11:20:26;;;;;;;3.47;3.17;;;;;;;7.37;58.21;95248.41;5002663;28;20222;-69
2022/11/28 11:22:57;;;;;;;4.83;3.70;;;;;;;7.62;57.51;95236.75;5005243;28;20275;-71
2022/11/28 11:25:25;;;;;;;4.87;4.40;;;;;;;7.56;57.35;95231.19;4997794;28;20384;-71
2022/11/28 11:27:57;;;;;;;5.00;3.83;;;;;;;7.63;57.29;95232.34;5006593;28;20191;-70
2022/11/28 11:30:32;;;;;;;4.77;4.27;;;;;;;7.68;56.93;95232.81;5017781;28;20654;-71
2022/11/28 11:32:59;;;;;;;4.43;3.87;;;;;;;7.73;56.81;95223.59;5002638;28;20213;-69
2022/11/28 11:35:33;;;;;;;5.40;4.83;;;;;;;7.52;58.23;95220.16;5019512;28;20205;-69
2022/11/28 11:38:26;;;;;;;6.33;4.30;;;;;;;7.40;57.79;95215.94;5027044;28;20270;-70
2022/11/28 11:40:52;;;;;;;6.70;4.30;;;;;;;7.55;57.05;95216.47;5029196;28;20191;-69
2022/11/28 11:43:24;;;;;;;3.73;3.43;;;;;;;8.33;54.80;95208.00;5026025;28;20665;-69
2022/11/28 11:46:03;;;;;;;3.83;3.27;;;;;;;9.01;52.81;95209.97;5019605;28;20200;-68
2022/11/28 11:48:46;;;;;;;3.83;3.33;;;;;;;9.30;51.32;95209.13;5026544;28;20209;-68
2022/11/28 11:51:29;;;;;;;2.80;2.60;;;;;;;9.50;49.88;95211.59;5007242;28;20190;-68
2022/11/28 11:54:14;;;;;;;3.30;2.63;;;;;;;8.83;51.77;95202.75;5019604;28;20201;-67
2022/11/28 11:56:43;;;;;;;3.70;3.40;;;;;;;8.47;51.97;95201.59;5021920;28;20340;-69
2022/11/28 11:59:44;;;;;;;3.63;3.30;;;;;;;8.19;52.27;95205.75;5025730;28;20494;-69
2022/11/28 12:02:36;;;;;;;4.97;3.20;;;;;;;8.03;51.84;95202.81;5000435;28;20221;-69